Time;durP1;ratioP1;P1;durP2;ratioP2;P2;SDS_P1;SDS_P2;PMS_P1;PMS_P2;Temp;Humidity;BMP_temperature;BMP_pressure;BME280_temperature;BME280_humidity;BME280_pressure;Samples;Min_cycle;Max_cycle;Signal;HPM_P1;HPM_P2
2024/01/04 00:02:15;;;;;;;1.30;0.83;;;8.30;99.90;;;8.77;100.00;96295.72;5025531;28;20481;-77
2024/01/04 00:04:43;;;;;;;2.13;0.97;;;8.30;99.90;;;8.78;100.00;96294.69;5024981;28;20508;-78
2024/01/04 00:07:13;;;;;;;0.80;0.70;;;8.30;99.90;;;8.73;100.00;96304.97;5025817;28;20458;-77
2024/01/04 00:09:42;;;;;;;1.00;0.70;;;8.30;99.90;;;8.77;100.00;96293.91;5026817;28;20993;-77
2024/01/04 00:12:10;;;;;;;1.27;0.70;;;8.40;99.90;;;8.74;100.00;96293.53;5024736;28;20490;-77
2024/01/04 00:14:39;;;;;;;1.20;0.80;;;8.20;99.90;;;8.69;100.00;96291.59;5027946;28;21147;-77
2024/01/04 00:17:07;;;;;;;0.80;0.73;;;8.20;99.90;;;8.73;100.00;96287.53;5025616;28;20463;-76
2024/01/04 00:19:36;;;;;;;1.83;1.23;;;8.20;99.90;;;8.68;100.00;96299.63;5022757;28;20468;-77
2024/01/04 00:22:05;;;;;;;0.80;0.70;;;8.20;99.90;;;8.73;100.00;96302.38;5022904;28;20474;-78
2024/01/04 00:24:35;;;;;;;1.80;0.77;;;8.20;99.90;;;8.70;100.00;96305.41;5023750;28;20467;-77
2024/01/04 00:27:04;;;;;;;1.90;0.87;;;8.30;99.90;;;8.75;100.00;96315.97;5022898;28;20479;-77
2024/01/04 00:29:32;;;;;;;1.80;0.80;;;8.30;99.90;;;8.72;100.00;96303.38;5023119;28;20501;-77
2024/01/04 00:32:01;;;;;;;1.30;0.87;;;8.30;99.90;;;8.68;100.00;96297.03;5021336;28;20490;-77
2024/01/04 00:34:29;;;;;;;1.63;0.70;;;8.20;99.90;;;8.71;100.00;96310.38;5023604;28;20469;-77
2024/01/04 00:36:58;;;;;;;1.83;0.80;;;8.20;99.90;;;8.72;100.00;96316.41;5022320;28;20470;-77
2024/01/04 00:39:27;;;;;;;1.20;0.93;;;8.30;99.90;;;8.71;100.00;96320.03;5023963;28;20482;-77
2024/01/04 00:41:57;;;;;;;1.23;0.77;;;8.20;99.90;;;8.71;100.00;96309.63;5022882;28;20465;-77
2024/01/04 00:44:26;;;;;;;0.90;0.80;;;8.30;99.90;;;8.72;100.00;96321.59;5022497;28;20453;-77
2024/01/04 00:46:54;;;;;;;1.10;0.87;;;8.20;99.90;;;8.75;100.00;96315.97;5021992;28;20466;-76
2024/01/04 00:49:23;;;;;;;1.03;0.80;;;8.20;99.90;;;8.76;100.00;96325.38;5021299;28;20498;-77
2024/01/04 00:51:51;;;;;;;1.13;0.80;;;8.20;99.90;;;8.76;100.00;96328.78;5021237;28;20471;-76
2024/01/04 00:54:20;;;;;;;5.70;1.00;;;8.30;99.90;;;8.75;100.00;96329.78;5022587;28;20478;-77
2024/01/04 00:56:48;;;;;;;1.00;0.80;;;8.30;99.90;;;8.77;100.00;96324.38;5022652;28;20462;-77
2024/01/04 00:59:18;;;;;;;1.00;0.80;;;8.30;99.90;;;8.76;100.00;96322.78;5021872;28;20458;-77
2024/01/04 01:01:46;;;;;;;1.70;0.70;;;8.40;99.90;;;8.78;100.00;96315.56;5021753;28;20553;-76
2024/01/04 01:04:15;;;;;;;1.50;0.70;;;8.30;99.90;;;8.79;100.00;96322.34;5021117;28;20520;-77
2024/01/04 01:06:43;;;;;;;0.80;0.70;;;8.30;99.90;;;8.82;100.00;96337.53;5023013;28;20454;-77
2024/01/04 01:09:12;;;;;;;2.30;0.70;;;8.40;99.90;;;8.85;100.00;96343.09;5021507;28;20852;-77
2024/01/04 01:11:40;;;;;;;0.90;0.70;;;8.40;99.90;;;8.86;100.00;96349.13;5024216;28;20507;-77
2024/01/04 01:14:10;;;;;;;1.00;0.70;;;8.40;99.90;;;8.81;100.00;96344.56;5022710;28;20500;-77
2024/01/04 01:16:40;;;;;;;0.80;0.60;;;8.40;99.90;;;8.83;100.00;96346.94;5023450;28;20527;-77
2024/01/04 01:19:08;;;;;;;1.37;0.70;;;8.40;99.90;;;8.84;100.00;96356.38;5024123;28;20465;-77
2024/01/04 01:21:37;;;;;;;0.90;0.80;;;8.30;99.90;;;8.83;100.00;96359.97;5023227;28;20513;-77
2024/01/04 01:24:06;;;;;;;2.83;0.83;;;8.30;99.90;;;8.83;100.00;96366.00;5023711;28;20528;-77
2024/01/04 01:26:34;;;;;;;2.40;0.80;;;8.40;99.90;;;8.84;100.00;96370.19;5023306;28;20942;-77
2024/01/04 01:29:03;;;;;;;1.57;0.80;;;8.40;99.90;;;8.84;100.00;96379.81;5025545;28;20980;-77
2024/01/04 01:31:32;;;;;;;0.90;0.60;;;8.40;99.90;;;8.86;100.00;96375.97;5022169;28;20577;-77
2024/01/04 01:34:01;;;;;;;0.90;0.67;;;8.40;99.90;;;8.87;100.00;96384.59;5024644;28;20497;-76
2024/01/04 01:36:30;;;;;;;2.40;0.70;;;8.30;99.90;;;8.80;100.00;96396.91;5023150;28;20465;-77
2024/01/04 01:38:58;;;;;;;0.70;0.60;;;8.40;99.90;;;8.79;100.00;96403.13;5025709;28;20458;-77
2024/01/04 01:41:27;;;;;;;1.43;0.70;;;8.40;99.90;;;8.79;100.00;96416.16;5023037;28;20542;-77
2024/01/04 01:43:56;;;;;;;0.80;0.60;;;8.40;99.90;;;8.78;100.00;96422.41;5023971;28;20462;-76
2024/01/04 01:46:24;;;;;;;0.87;0.60;;;8.40;99.90;;;8.70;100.00;96430.47;5023933;28;20461;-77
2024/01/04 01:48:53;;;;;;;0.93;0.70;;;8.30;99.90;;;8.68;100.00;96429.91;5019051;28;20553;-77
2024/01/04 01:51:23;;;;;;;0.90;0.70;;;8.40;99.90;;;8.68;100.00;96430.69;5021026;28;20466;-77
2024/01/04 01:53:52;;;;;;;1.20;0.70;;;8.30;99.90;;;8.69;100.00;96432.28;5021873;28;21062;-77
2024/01/04 01:56:20;;;;;;;0.80;0.67;;;8.30;99.90;;;8.75;100.00;96431.41;5022918;28;20470;-76
2024/01/04 01:58:50;;;;;;;0.80;0.60;;;8.30;99.90;;;8.73;100.00;96432.66;5024662;28;20454;-77
2024/01/04 02:01:19;;;;;;;0.70;0.60;;;8.30;99.90;;;8.73;100.00;96440.47;5022128;28;21196;-76
2024/01/04 02:03:48;;;;;;;1.53;1.03;;;8.30;99.90;;;8.77;100.00;96454.66;5024160;28;20496;-77
2024/01/04 02:06:17;;;;;;;0.90;0.80;;;8.30;99.90;;;8.73;100.00;96433.44;5024143;28;20457;-76
2024/01/04 02:08:49;;;;;;;0.80;0.70;;;8.20;99.90;;;8.69;100.00;96457.53;5022970;28;21050;-76
2024/01/04 02:11:17;;;;;;;0.80;0.70;;;8.30;99.90;;;8.65;100.00;96469.41;5024708;28;20495;-77
2024/01/04 02:13:46;;;;;;;0.80;0.70;;;8.30;99.90;;;8.63;100.00;96456.59;5023697;28;20552;-77
2024/01/04 02:16:15;;;;;;;2.63;0.70;;;8.20;99.90;;;8.62;100.00;96472.44;5025225;28;20464;-77
2024/01/04 02:18:43;;;;;;;0.80;0.70;;;8.30;99.90;;;8.61;100.00;96461.22;5022024;28;20481;-76
2024/01/04 02:21:12;;;;;;;0.70;0.60;;;8.30;99.90;;;8.61;100.00;96466.41;5024276;28;20458;-77
2024/01/04 02:23:42;;;;;;;1.10;0.70;;;8.30;99.90;;;8.63;100.00;96471.44;5023386;28;20584;-76
2024/01/04 02:26:10;;;;;;;2.00;0.80;;;8.20;99.90;;;8.63;100.00;96476.63;5024024;28;20465;-77
2024/01/04 02:28:39;;;;;;;2.40;0.70;;;8.20;99.90;;;8.63;100.00;96468.81;5022488;28;20489;-77
2024/01/04 02:31:07;;;;;;;0.80;0.70;;;8.20;99.90;;;8.61;100.00;96476.84;5022791;28;20497;-77
2024/01/04 02:33:36;;;;;;;1.17;0.67;;;8.20;99.90;;;8.62;100.00;96467.22;5019874;28;20489;-77
2024/01/04 02:36:05;;;;;;;0.70;0.63;;;8.20;99.90;;;8.63;100.00;96479.25;5018688;28;20497;-77
2024/01/04 02:38:33;;;;;;;1.17;0.70;;;8.20;99.90;;;8.63;100.00;96484.47;5019922;28;20458;-76
2024/01/04 02:41:03;;;;;;;0.80;0.70;;;8.20;99.90;;;8.67;100.00;96490.84;5021015;28;20549;-76
2024/01/04 02:43:32;;;;;;;1.47;0.70;;;8.20;99.90;;;8.65;100.00;96492.84;5020391;28;20465;-76
2024/01/04 02:46:00;;;;;;;2.03;0.70;;;8.30;99.90;;;8.63;100.00;96500.09;5020606;28;20523;-76
2024/01/04 02:48:29;;;;;;;1.37;0.90;;;8.20;99.90;;;8.61;100.00;96502.13;5023361;28;20462;-76
2024/01/04 02:50:57;;;;;;;2.90;1.00;;;8.20;99.90;;;8.67;100.00;96499.47;5020305;28;20466;-76
2024/01/04 02:53:26;;;;;;;1.57;0.83;;;8.20;99.90;;;8.71;100.00;96500.59;5021059;28;20559;-77
2024/01/04 02:55:56;;;;;;;2.17;0.70;;;8.30;99.90;;;8.74;100.00;96512.44;5024016;28;20461;-76
2024/01/04 02:58:27;;;;;;;0.70;0.70;;;8.30;99.90;;;8.71;100.00;96511.03;5025250;28;20477;-77
2024/01/04 03:00:56;;;;;;;0.90;0.80;;;8.30;99.90;;;8.72;100.00;96511.81;5023416;28;20539;-77
2024/01/04 03:03:24;;;;;;;3.87;0.87;;;8.40;99.90;;;8.68;100.00;96519.28;5024232;28;20467;-76
2024/01/04 03:05:53;;;;;;;1.77;0.80;;;8.30;99.90;;;8.70;100.00;96526.88;5024122;28;20462;-76
2024/01/04 03:08:22;;;;;;;1.33;0.87;;;8.40;99.90;;;8.66;100.00;96523.91;5024924;28;20469;-76
2024/01/04 03:10:51;;;;;;;1.83;0.80;;;8.30;99.90;;;8.67;100.00;96522.91;5024062;28;20928;-77
2024/01/04 03:13:19;;;;;;;1.50;0.83;;;8.20;99.90;;;8.71;100.00;96533.72;5026268;28;20492;-77
2024/01/04 03:15:49;;;;;;;0.70;0.70;;;8.30;99.90;;;8.72;100.00;96530.06;5023160;28;20515;-76
2024/01/04 03:18:17;;;;;;;1.80;1.20;;;8.20;99.90;;;8.76;100.00;96544.28;5024261;28;21227;-76
2024/01/04 03:20:46;;;;;;;4.10;0.90;;;8.30;99.90;;;8.76;100.00;96534.66;5023037;28;20880;-76
2024/01/04 03:23:14;;;;;;;3.03;1.00;;;8.40;99.90;;;8.73;100.00;96548.09;5024507;28;20474;-77
2024/01/04 03:25:43;;;;;;;1.67;0.80;;;8.30;99.90;;;8.73;100.00;96553.31;5023350;28;20528;-77
2024/01/04 03:28:11;;;;;;;7.67;1.00;;;8.30;99.90;;;8.75;100.00;96545.28;5023467;28;20477;-77
2024/01/04 03:30:40;;;;;;;1.40;0.70;;;8.30;99.90;;;8.77;100.00;96548.47;5023870;28;20462;-77
2024/01/04 03:33:13;;;;;;;1.37;0.80;;;8.40;99.90;;;8.75;100.00;96550.50;5023691;28;20462;-76
2024/01/04 03:35:41;;;;;;;1.63;0.90;;;8.30;99.90;;;8.77;100.00;96548.47;5022816;28;20461;-76
2024/01/04 03:38:10;;;;;;;1.97;0.80;;;8.20;99.90;;;8.79;100.00;96572.50;5022497;28;20548;-76
2024/01/04 03:40:38;;;;;;;64.47;29.07;;;8.40;99.90;;;8.77;100.00;96558.91;5021442;28;20462;-76
2024/01/04 03:43:07;;;;;;;1.90;0.90;;;8.30;99.90;;;8.74;100.00;96574.97;5022841;28;20473;-77
2024/01/04 03:45:35;;;;;;;1.00;0.70;;;8.30;99.90;;;8.75;100.00;96577.34;5022823;28;20968;-77
2024/01/04 03:48:05;;;;;;;1.13;0.97;;;8.30;99.90;;;8.77;100.00;96574.53;5024017;28;21507;-77
2024/01/04 03:50:36;;;;;;;2.43;1.07;;;8.40;99.90;;;8.78;100.00;96570.94;5023489;28;20465;-77
2024/01/04 03:53:05;;;;;;;1.33;0.70;;;8.40;99.90;;;8.79;100.00;96580.34;5023946;28;21174;-77
2024/01/04 03:55:33;;;;;;;1.00;0.77;;;8.40;99.90;;;8.80;100.00;96579.31;5024458;28;21004;-77
2024/01/04 03:58:01;;;;;;;2.93;1.30;;;8.40;99.90;;;8.76;100.00;96596.41;5023095;28;20458;-76
2024/01/04 04:00:30;;;;;;;11.50;6.43;;;8.30;99.90;;;8.78;100.00;96587.34;5022529;28;20494;-78
2024/01/04 04:03:01;;;;;;;1.37;0.80;;;8.30;99.90;;;8.74;100.00;96595.81;5025280;28;20458;-78
2024/01/04 04:05:30;;;;;;;0.70;0.70;;;8.20;99.90;;;8.77;100.00;96595.41;5025142;28;20908;-78
2024/01/04 04:08:00;;;;;;;1.23;0.80;;;8.30;99.90;;;8.80;100.00;96605.41;5027429;28;20458;-78
2024/01/04 04:10:28;;;;;;;1.30;0.80;;;8.30;99.90;;;8.74;100.00;96601.03;5025478;28;20458;-77
2024/01/04 04:12:57;;;;;;;6.20;0.93;;;8.40;99.90;;;8.75;100.00;96620.84;5023391;28;20536;-78
2024/01/04 04:15:25;;;;;;;2.83;1.87;;;8.30;99.90;;;8.74;100.00;96614.06;5021589;28;20502;-77
2024/01/04 04:17:55;;;;;;;1.10;0.93;;;8.30;99.90;;;8.73;100.00;96615.88;5021497;28;20690;-77
2024/01/04 04:20:24;;;;;;;0.80;0.70;;;8.40;99.90;;;8.74;100.00;96619.28;5026455;28;20515;-77
2024/01/04 04:22:52;;;;;;;0.90;0.70;;;8.30;99.90;;;8.73;100.00;96620.28;5022521;28;20467;-76
2024/01/04 04:25:22;;;;;;;1.43;0.80;;;8.20;99.90;;;8.78;100.00;96623.06;5021372;28;20475;-77
2024/01/04 04:27:50;;;;;;;1.57;1.03;;;8.30;99.90;;;8.78;100.00;96623.84;5022713;28;20474;-78
2024/01/04 04:30:19;;;;;;;1.97;1.00;;;8.30;99.90;;;8.76;100.00;96632.88;5021746;28;20494;-77
2024/01/04 04:32:48;;;;;;;1.03;0.70;;;8.30;99.90;;;8.75;100.00;96626.06;5023961;28;20466;-77
2024/01/04 04:35:17;;;;;;;4.57;0.90;;;8.30;99.90;;;8.76;100.00;96633.69;5023161;28;20587;-77
2024/01/04 04:37:45;;;;;;;1.10;0.83;;;8.30;99.90;;;8.76;100.00;96636.28;5023629;28;20509;-77
2024/01/04 04:40:14;;;;;;;1.20;0.90;;;8.20;99.90;;;8.76;100.00;96651.13;5024667;28;20482;-77
2024/01/04 04:42:45;;;;;;;3.10;0.80;;;8.30;99.90;;;8.76;100.00;96651.13;5026149;28;20473;-77
2024/01/04 04:45:13;;;;;;;1.10;1.00;;;8.30;99.90;;;8.75;100.00;96654.72;5026102;28;20466;-77
2024/01/04 04:47:42;;;;;;;1.57;0.70;;;8.30;99.90;;;8.78;100.00;96665.53;5025352;28;20477;-77
2024/01/04 04:50:11;;;;;;;1.00;0.90;;;8.40;99.90;;;8.75;100.00;96667.75;5026747;28;20469;-76
2024/01/04 04:52:39;;;;;;;2.40;0.90;;;8.30;99.90;;;8.75;100.00;96652.13;5024224;28;20469;-77
2024/01/04 04:55:08;;;;;;;0.70;0.70;;;8.30;99.90;;;8.78;100.00;96664.75;5024777;28;20560;-77
2024/01/04 04:57:38;;;;;;;1.40;0.77;;;8.30;99.90;;;8.78;100.00;96675.19;5023800;28;20545;-78
2024/01/04 05:00:10;;;;;;;1.47;0.90;;;8.30;99.90;;;8.80;100.00;96680.97;5026063;28;20481;-77
2024/01/04 05:02:39;;;;;;;1.83;1.10;;;8.30;99.90;;;8.76;100.00;96672.78;5025314;28;20450;-77
2024/01/04 05:05:08;;;;;;;1.30;1.07;;;8.40;99.90;;;8.77;100.00;96684.00;5023192;28;20470;-77
2024/01/04 05:07:36;;;;;;;1.47;0.70;;;8.40;99.90;;;8.76;100.00;96698.03;5024078;28;20952;-78
2024/01/04 05:10:06;;;;;;;1.40;0.97;;;8.30;99.90;;;8.70;100.00;96704.09;5023818;28;20466;-77
2024/01/04 05:12:35;;;;;;;0.83;0.70;;;8.30;99.90;;;8.73;100.00;96701.06;5025666;28;20458;-78
2024/01/04 05:15:10;;;;;;;2.70;1.30;;;8.40;99.90;;;8.68;100.00;96701.66;5020134;28;20499;-77
2024/01/04 05:17:38;;;;;;;2.20;0.90;;;8.30;99.90;;;8.68;100.00;96708.72;5020431;28;20492;-78
2024/01/04 05:20:08;;;;;;;0.70;0.70;;;8.20;99.90;;;8.67;100.00;96704.50;5020138;28;20498;-77
2024/01/04 05:22:37;;;;;;;1.00;0.83;;;8.20;99.90;;;8.70;100.00;96706.69;5020007;28;20466;-77
2024/01/04 05:25:06;;;;;;;1.87;0.80;;;8.30;99.90;;;8.72;100.00;96715.09;5023080;28;20523;-77
2024/01/04 05:27:35;;;;;;;34.10;17.90;;;8.20;99.90;;;8.71;100.00;96713.50;5021676;28;20512;-77
2024/01/04 05:30:04;;;;;;;2.60;1.17;;;8.30;99.90;;;8.68;100.00;96719.13;5020987;28;20937;-77
2024/01/04 05:32:33;;;;;;;1.57;0.80;;;8.20;99.90;;;8.71;100.00;96716.88;5021248;28;21218;-78
2024/01/04 05:35:03;;;;;;;4.70;2.77;;;8.30;99.90;;;8.68;100.00;96711.31;5020234;28;20490;-76
2024/01/04 05:37:31;;;;;;;1.50;0.87;;;8.30;99.90;;;8.68;100.00;96729.56;5020032;28;20869;-78
2024/01/04 05:40:00;;;;;;;1.53;0.70;;;8.20;99.90;;;8.66;100.00;96732.38;5021146;28;20473;-77
2024/01/04 05:42:29;;;;;;;1.07;0.80;;;8.10;99.90;;;8.68;100.00;96732.16;5018509;28;20474;-77
2024/01/04 05:44:57;;;;;;;0.90;0.70;;;8.10;99.90;;;8.68;100.00;96737.38;5023544;28;20516;-77
2024/01/04 05:47:26;;;;;;;1.30;0.77;;;8.20;99.90;;;8.69;100.00;96750.19;5024814;28;20597;-77
2024/01/04 05:49:56;;;;;;;0.90;0.70;;;8.20;99.90;;;8.65;100.00;96745.59;5024453;28;20515;-76
2024/01/04 05:52:25;;;;;;;0.70;0.60;;;8.20;99.90;;;8.67;100.00;96757.41;5023941;28;20988;-78
2024/01/04 05:54:53;;;;;;;0.80;0.80;;;8.20;99.90;;;8.70;100.00;96756.19;5025830;28;20493;-77
2024/01/04 05:57:26;;;;;;;1.27;0.80;;;8.20;99.90;;;8.66;100.00;96765.44;5023020;28;20971;-77
2024/01/04 05:59:55;;;;;;;1.90;0.60;;;8.20;99.90;;;8.64;100.00;96765.66;5022432;28;21004;-77
2024/01/04 06:02:26;;;;;;;0.70;0.60;;;8.20;99.90;;;8.66;100.00;96775.84;5021748;28;20469;-78
2024/01/04 06:04:56;;;;;;;2.60;0.70;;;8.20;99.90;;;8.71;100.00;96773.44;5022284;28;20557;-77
2024/01/04 06:07:25;;;;;;;2.07;0.60;;;8.10;99.90;;;8.65;100.00;96769.03;5022083;28;20960;-78
2024/01/04 06:09:56;;;;;;;3.63;0.80;;;8.10;99.90;;;8.61;100.00;96773.09;5022182;28;20462;-77
2024/01/04 06:12:25;;;;;;;0.80;0.77;;;8.20;99.90;;;8.51;100.00;96769.09;5021830;28;20462;-78
2024/01/04 06:14:54;;;;;;;0.90;0.70;;;8.00;99.90;;;8.56;100.00;96771.88;5020014;28;21020;-77
2024/01/04 06:17:23;;;;;;;0.70;0.60;;;8.00;99.90;;;8.54;100.00;96768.66;5020648;28;20466;-77
2024/01/04 06:19:51;;;;;;;1.23;0.70;;;8.00;99.90;;;8.56;100.00;96782.31;5021918;28;20458;-77
2024/01/04 06:22:21;;;;;;;0.90;0.70;;;8.10;99.90;;;8.55;100.00;96785.91;5020902;28;20534;-77
2024/01/04 06:24:50;;;;;;;1.73;0.80;;;8.10;99.90;;;8.58;100.00;96797.72;5024340;28;20472;-78
2024/01/04 06:27:18;;;;;;;0.70;0.70;;;8.20;99.90;;;8.56;100.00;96810.16;5025638;28;20470;-78
2024/01/04 06:29:47;;;;;;;1.57;0.80;;;8.10;99.90;;;8.61;100.00;96802.53;5028958;28;20549;-77
2024/01/04 06:32:15;;;;;;;1.10;0.80;;;8.10;99.90;;;8.62;100.00;96811.13;5026075;28;20951;-77
2024/01/04 06:34:44;;;;;;;0.90;0.70;;;8.20;99.90;;;8.57;100.00;96815.16;5027423;28;20489;-78
2024/01/04 06:37:13;;;;;;;0.70;0.70;;;8.10;99.90;;;8.58;100.00;96815.97;5028493;28;20462;-78
2024/01/04 06:39:44;;;;;;;0.80;0.77;;;8.20;99.90;;;8.61;100.00;96814.78;5028624;28;20468;-77
2024/01/04 06:42:14;;;;;;;1.60;0.70;;;8.10;99.90;;;8.57;100.00;96816.97;5028593;28;20470;-77
2024/01/04 06:44:43;;;;;;;0.80;0.67;;;8.10;99.90;;;8.49;100.00;96818.00;5029199;28;20469;-77
2024/01/04 06:47:15;;;;;;;0.70;0.60;;;8.00;99.90;;;8.44;100.00;96814.38;5028537;28;20476;-77
2024/01/04 06:49:44;;;;;;;0.70;0.60;;;8.00;99.90;;;8.43;100.00;96826.63;5027929;28;20480;-77
2024/01/04 06:52:12;;;;;;;1.60;0.73;;;8.00;99.90;;;8.45;100.00;96822.00;5027716;28;21274;-77
2024/01/04 06:54:42;;;;;;;1.67;0.90;;;8.00;99.90;;;8.47;100.00;96824.41;5027150;28;20491;-77
2024/01/04 06:57:11;;;;;;;1.10;0.80;;;8.00;99.90;;;8.43;100.00;96842.25;5028168;28;20870;-78
2024/01/04 06:59:39;;;;;;;1.07;0.60;;;8.00;99.90;;;8.44;100.00;96840.44;5027086;28;20465;-77
2024/01/04 07:02:08;;;;;;;0.90;0.70;;;7.90;99.90;;;8.41;100.00;96849.47;5022643;28;20477;-77
2024/01/04 07:04:36;;;;;;;0.80;0.70;;;7.90;99.90;;;8.39;100.00;96851.47;5024177;28;20462;-78
2024/01/04 07:07:05;;;;;;;1.17;0.60;;;7.80;99.90;;;8.42;100.00;96855.47;5022813;28;20461;-77
2024/01/04 07:09:37;;;;;;;2.83;0.73;;;7.80;99.90;;;8.43;100.00;96860.50;5023997;28;20566;-77
2024/01/04 07:12:08;;;;;;;0.70;0.60;;;7.90;99.90;;;8.40;100.00;96866.09;5022515;28;20466;-78
2024/01/04 07:14:38;;;;;;;1.00;0.80;;;7.80;99.90;;;8.41;100.00;96865.09;5024903;28;20550;-77
2024/01/04 07:17:08;;;;;;;0.70;0.70;;;7.90;99.90;;;8.41;100.00;96861.69;5022270;28;20508;-77
2024/01/04 07:19:37;;;;;;;1.47;0.80;;;7.80;99.90;;;8.39;100.00;96868.91;5023965;28;20462;-77
2024/01/04 07:22:05;;;;;;;1.70;0.67;;;7.90;99.90;;;8.36;100.00;96870.13;5024426;28;20470;-77
2024/01/04 07:24:34;;;;;;;0.87;0.70;;;7.80;99.90;;;8.37;100.00;96876.91;5026839;28;20476;-77
2024/01/04 07:27:03;;;;;;;0.70;0.60;;;7.90;99.90;;;8.37;100.00;96882.13;5027058;28;20458;-77
2024/01/04 07:29:33;;;;;;;1.23;0.90;;;7.80;99.90;;;8.42;100.00;96884.13;5026544;28;20463;-78
2024/01/04 07:32:01;;;;;;;0.70;0.60;;;7.70;99.90;;;8.35;100.00;96894.56;5028720;28;20458;-77
2024/01/04 07:34:33;;;;;;;0.90;0.70;;;7.80;99.90;;;8.34;100.00;96890.34;5029067;28;20883;-78
2024/01/04 07:37:02;;;;;;;1.00;0.77;;;7.70;99.90;;;8.39;100.00;96895.75;5028307;28;20490;-77
2024/01/04 07:39:31;;;;;;;2.20;0.70;;;7.70;99.90;;;8.41;100.00;96888.53;5024843;28;20463;-78
2024/01/04 07:41:59;;;;;;;1.37;0.60;;;7.80;99.90;;;8.42;100.00;96897.97;5025965;28;20504;-78
2024/01/04 07:44:28;;;;;;;0.80;0.70;;;7.90;99.90;;;8.41;100.00;96898.97;5025997;28;20481;-77
2024/01/04 07:46:58;;;;;;;1.10;0.70;;;7.90;99.90;;;8.34;100.00;96903.38;5028228;28;20471;-77
2024/01/04 07:49:27;;;;;;;0.90;0.80;;;7.70;99.90;;;8.36;100.00;96901.38;5025475;28;20470;-78
2024/01/04 07:51:55;;;;;;;1.50;0.80;;;7.90;99.90;;;8.36;100.00;96906.59;5027398;28;20473;-77
2024/01/04 07:54:26;;;;;;;1.20;0.70;;;7.80;99.90;;;8.35;100.00;96915.41;5026289;28;20576;-77
2024/01/04 07:57:00;;;;;;;1.50;0.80;;;7.90;99.90;;;8.40;100.00;96915.56;5026446;28;20999;-78
2024/01/04 07:59:29;;;;;;;2.00;0.90;;;7.90;99.90;;;8.41;100.00;96922.41;5026963;28;20461;-77
2024/01/04 08:02:00;;;;;;;2.87;0.80;;;7.90;99.90;;;8.42;100.00;96920.59;5023555;28;20892;-77
2024/01/04 08:04:28;;;;;;;2.30;1.10;;;7.90;99.90;;;8.42;100.00;96921.41;5024065;28;20462;-77
2024/01/04 08:06:57;;;;;;;2.80;1.00;;;8.00;99.90;;;8.40;100.00;96928.59;5024916;28;21155;-78
2024/01/04 08:09:25;;;;;;;0.90;0.77;;;8.00;99.90;;;8.40;100.00;96923.38;5024071;28;21046;-77
2024/01/04 08:11:54;;;;;;;1.10;0.70;;;7.90;99.90;;;8.45;100.00;96925.41;5024849;28;20555;-78
2024/01/04 08:14:22;;;;;;;1.93;0.80;;;8.00;99.90;;;8.40;100.00;96933.81;5024490;28;21006;-77
2024/01/04 08:16:51;;;;;;;1.50;1.00;;;7.90;99.90;;;8.42;100.00;96937.03;5022992;28;21458;-77
2024/01/04 08:19:21;;;;;;;4.90;1.10;;;7.90;99.90;;;8.46;100.00;96932.22;5023587;28;20466;-77
2024/01/04 08:21:49;;;;;;;4.70;1.00;;;8.00;99.90;;;8.41;100.00;96930.22;5024624;28;20548;-78
2024/01/04 08:24:18;;;;;;;1.73;0.90;;;8.00;99.90;;;8.38;100.00;96942.84;5025434;28;20466;-77
2024/01/04 08:26:47;;;;;;;3.97;0.90;;;7.90;99.90;;;8.36;100.00;96937.84;5026659;28;20467;-77
2024/01/04 08:29:15;;;;;;;8.80;1.37;;;7.90;99.90;;;8.39;100.00;96942.66;5026075;28;20493;-77
2024/01/04 08:31:43;;;;;;;2.50;0.90;;;7.90;99.90;;;8.36;100.00;96945.66;5025249;28;20969;-77
2024/01/04 08:34:12;;;;;;;2.47;0.93;;;8.00;99.90;;;8.35;100.00;96946.66;5024753;28;20471;-78
2024/01/04 08:36:45;;;;;;;1.37;0.83;;;8.00;99.90;;;8.39;100.00;96957.47;5026806;28;20548;-78
2024/01/04 08:39:13;;;;;;;1.70;1.20;;;7.90;99.90;;;8.35;100.00;96957.06;5027740;28;20464;-77
2024/01/04 08:41:42;;;;;;;1.23;1.00;;;7.80;99.90;;;8.39;100.00;96953.06;5027353;28;20553;-77
2024/01/04 08:44:11;;;;;;;1.80;0.70;;;7.80;99.90;;;8.41;100.00;96952.84;5025332;28;20489;-77
2024/01/04 08:46:40;;;;;;;3.47;1.30;;;7.90;99.90;;;8.42;100.00;96955.28;5024806;28;20546;-77
2024/01/04 08:49:08;;;;;;;2.00;1.10;;;7.80;99.90;;;8.42;100.00;96963.09;5025586;28;20513;-77
2024/01/04 08:51:38;;;;;;;1.60;0.90;;;7.80;99.90;;;8.39;100.00;96968.69;5026543;28;21067;-77
2024/01/04 08:54:08;;;;;;;7.67;1.60;;;7.90;99.90;;;8.40;100.00;96977.31;5025980;28;20474;-77
2024/01/04 08:56:36;;;;;;;0.90;0.80;;;7.90;99.90;;;8.38;100.00;96987.13;5028915;28;20944;-77
2024/01/04 08:59:05;;;;;;;1.40;0.80;;;7.90;99.90;;;8.37;100.00;96975.88;5025988;28;20484;-77
2024/01/04 09:01:34;;;;;;;6.00;1.10;;;8.00;99.90;;;8.39;100.00;96989.53;5023781;28;20492;-77
2024/01/04 09:04:02;;;;;;;2.10;1.07;;;8.00;99.90;;;8.39;100.00;96989.53;5020337;28;20463;-78
2024/01/04 09:06:32;;;;;;;6.97;1.30;;;8.00;99.90;;;8.33;100.00;96995.50;5023132;28;20483;-77
2024/01/04 09:09:05;;;;;;;10.60;1.20;;;7.80;99.90;;;8.34;100.00;96996.31;5022051;28;20803;-78
2024/01/04 09:11:40;;;;;;;1.03;0.93;;;7.80;99.90;;;8.38;100.00;96992.31;5021831;28;20553;-78
2024/01/04 09:14:11;;;;;;;2.33;1.13;;;7.80;99.90;;;8.36;100.00;96996.94;5021890;28;20476;-77
2024/01/04 09:16:43;;;;;;;6.43;1.20;;;7.90;99.90;;;8.37;100.00;97001.13;5020945;28;20502;-78
2024/01/04 09:19:16;;;;;;;4.03;1.43;;;7.90;99.90;;;8.36;100.00;97008.16;5022494;28;20986;-77
2024/01/04 09:21:49;;;;;;;11.37;1.23;;;7.90;99.90;;;8.35;100.00;97008.34;5021507;28;20462;-78
2024/01/04 09:24:20;;;;;;;3.77;1.10;;;7.90;99.90;;;8.38;100.00;97016.56;5024457;28;20468;-78
2024/01/04 09:26:50;;;;;;;2.40;1.10;;;7.90;99.90;;;8.26;100.00;97018.09;5025389;28;20960;-78
2024/01/04 09:29:19;;;;;;;7.57;1.30;;;7.80;99.90;;;8.25;100.00;97037.34;5026261;28;20473;-77
2024/01/04 09:31:47;;;;;;;10.43;1.33;;;7.70;99.90;;;8.21;100.00;97032.72;5024642;28;21146;-78
2024/01/04 09:34:16;;;;;;;5.47;1.47;;;7.70;99.90;;;8.20;100.00;97042.34;5025850;28;20466;-77
2024/01/04 09:36:45;;;;;;;2.80;1.47;;;7.60;99.90;;;8.21;100.00;97043.97;5025379;28;20500;-78
2024/01/04 09:39:17;;;;;;;4.60;1.60;;;7.60;99.90;;;8.20;100.00;97051.94;5025051;28;20479;-78
2024/01/04 09:41:50;;;;;;;2.53;1.33;;;7.70;99.90;;;8.19;100.00;97058.97;5024534;28;20535;-77
2024/01/04 09:44:19;;;;;;;5.87;1.87;;;7.60;99.90;;;8.26;100.00;97059.78;5025410;28;20540;-78
2024/01/04 09:46:54;;;;;;;14.13;1.97;;;7.80;99.90;;;8.31;100.00;97064.44;5025016;28;20526;-77
2024/01/04 09:49:23;;;;;;;3.20;1.20;;;7.80;99.90;;;8.28;100.00;97075.22;5028208;28;20540;-77
2024/01/04 09:51:52;;;;;;;16.00;1.77;;;7.80;99.90;;;8.23;100.00;97073.19;5024595;28;20509;-77
2024/01/04 09:54:22;;;;;;;5.77;1.47;;;7.70;99.90;;;8.30;100.00;97068.84;5024727;28;20562;-77
2024/01/04 09:56:56;;;;;;;2.60;1.40;;;7.70;99.90;;;8.33;100.00;97073.66;5025022;28;21105;-77
2024/01/04 09:59:24;;;;;;;6.17;1.70;;;7.70;99.90;;;8.39;100.00;97083.31;5025696;28;20462;-78
2024/01/04 10:01:55;;;;;;;7.80;2.70;;;7.80;99.90;;;8.35;100.00;97083.88;5025136;28;20473;-78
2024/01/04 10:04:26;;;;;;;3.03;1.17;;;7.70;99.90;;;8.42;100.00;97090.72;5021877;28;20457;-77
2024/01/04 10:06:57;;;;;;;5.80;1.27;;;7.80;99.90;;;8.38;100.00;97099.94;5021769;28;20463;-76
2024/01/04 10:09:32;;;;;;;2.10;1.20;;;7.90;99.90;;;8.42;100.00;97108.16;5023802;28;20864;-78
2024/01/04 10:12:08;;;;;;;6.07;1.20;;;7.90;99.90;;;8.45;100.00;97112.97;5021266;28;20461;-77
2024/01/04 10:14:38;;;;;;;4.77;1.60;;;8.00;99.90;;;8.49;100.00;97112.38;5024018;28;20989;-77
2024/01/04 10:17:09;;;;;;;5.87;1.03;;;8.00;99.90;;;8.42;100.00;97116.78;5022252;28;20490;-77
2024/01/04 10:19:40;;;;;;;5.27;1.70;;;7.80;99.90;;;8.44;100.00;97112.16;5023763;28;20555;-77
2024/01/04 10:22:09;;;;;;;8.57;1.20;;;7.80;99.90;;;8.50;100.00;97119.19;5020635;28;20878;-78
2024/01/04 10:24:41;;;;;;;4.23;1.63;;;7.90;99.90;;;8.49;100.00;97120.19;5022745;28;20464;-77
2024/01/04 10:27:16;;;;;;;6.67;1.20;;;7.90;99.90;;;8.52;100.00;97119.00;5024369;28;20529;-77
2024/01/04 10:29:50;;;;;;;5.83;1.60;;;7.90;99.90;;;8.56;100.00;97120.22;5023642;28;20476;-77
2024/01/04 10:32:19;;;;;;;4.60;1.50;;;7.90;99.90;;;8.61;100.00;97119.63;5025332;28;20505;-77
2024/01/04 10:34:47;;;;;;;9.17;1.80;;;8.00;99.90;;;8.64;100.00;97122.66;5024042;28;20466;-77